Flugplatz - Wetter - Augsburg

[Quelle: ADDS]
METAR
EDMA 281250Z COR 02006KT 9999 FEW012 BKN031 OVC038 00/M02 Q1024 =
EDMA 281100Z 2812/2821 06006KT 9999 SCT010 OVC040 TEMPO 2812/2813 BKN010 BECMG 2818/2820 OVC007
TAF
EDMA 281100Z 2812/2821 06006KT 9999 SCT010 OVC040 TEMPO 2812/2813 BKN010 BECMG 2818/2820 OVC007 =
SR / SS: 06:51 / 16:09 UTC (Augsburg 2023-01-28)

Flugplatz - Wetter - Laupheim

[Quelle: ADDS]
METAR
ETHL 281220Z 06007KT 9999 SCT014 BKN025 M01/M03 Q1023 BLU =
TAF
SR / SS: 06:54 / 16:14 UTC (Laupheim 2023-01-28)

Flugplatz - Wetter - Memmingen

[Quelle: ADDS]
METAR
EDJA 281250Z 04009KT 9999 BKN011 OVC033 M01/M04 Q1022 =
EDJA 281100Z 2812/2821 05008KT 9999 OVC010 TEMPO 2812/2816 BKN015 BECMG 2818/2820 OVC006
TAF
EDJA 281100Z 2812/2821 05008KT 9999 OVC010 TEMPO 2812/2816 BKN015 BECMG 2818/2820 OVC006 =
SR / SS: 06:50 / 16:13 UTC (Memmingen 2023-01-28)

Flugplatz - Wetter - Neuburg/Donau

[Quelle: ADDS]
METAR
ETSN 281220Z 04001KT 9999 SCT010 OVC013 01/M02 Q1024 GRN =
ETSN 281112Z 2812/2821 03005KT 9999 NSW FEW012 BKN040 TEMPO 2812/2821 VRB03KT 9999 NSW BKN010 OVC030 PROB30 2818/2821 VRB03KT 5000 -SG BKN008 OVC020 BY ETGL
TAF
ETSN 281112Z 2812/2821 03005KT 9999 NSW FEW012 BKN040 TEMPO 2812/2821 VRB03KT 9999 NSW BKN010 OVC030 PROB30 2818/2821 VRB03KT 5000 -SG BKN008 OVC020 BY ETGL =
SR / SS: 06:49 / 16:07 UTC (Neuburg 2023-01-28)

Flugplatz - Wetter - Stuttgart

[Quelle: ADDS]
METAR
EDDS 281250Z AUTO 02008KT 9999 OVC016 01/M02 Q1024 BECMG OVC014 =
EDDS 281100Z 2812/2912 01007KT 9999 BKN015 BECMG 2821/2823 VRB02KT PROB30 TEMPO 2902/2910 4000 BR BKN005
TAF
EDDS 281100Z 2812/2912 01007KT 9999 BKN015 BECMG 2821/2823 VRB02KT PROB30 TEMPO 2902/2910 4000 BR BKN005 =
SR / SS: 06:57 / 16:15 UTC (Stuttgart 2023-01-28)

Flugplatz - Wetter - Niederstetten

[Quelle: ADDS]
METAR
ETHN 281220Z 03009KT 9999 FEW006 OVC008 M00/M03 Q1025 GRN =
TAF
SR / SS: 06:58 / 16:10 UTC (Niederstetten 2023-01-28)